sensor_id;sensor_type;location;lat;lon;timestamp;P1;durP1;ratioP1;P2;durP2;ratioP2
12437;SDS011;6283;51.330;12.374;2023-10-08T00:01:08;4.50;;;3.60;;
12437;SDS011;6283;51.330;12.374;2023-10-08T00:03:37;5.00;;;3.40;;
12437;SDS011;6283;51.330;12.374;2023-10-08T00:06:04;5.55;;;3.08;;
12437;SDS011;6283;51.330;12.374;2023-10-08T00:08:31;6.50;;;3.47;;
12437;SDS011;6283;51.330;12.374;2023-10-08T00:11:00;5.72;;;3.33;;
12437;SDS011;6283;51.330;12.374;2023-10-08T00:13:35;4.97;;;3.28;;
12437;SDS011;6283;51.330;12.374;2023-10-08T00:16:05;5.40;;;3.38;;
12437;SDS011;6283;51.330;12.374;2023-10-08T00:18:36;6.85;;;3.60;;
12437;SDS011;6283;51.330;12.374;2023-10-08T00:21:06;5.00;;;3.35;;
12437;SDS011;6283;51.330;12.374;2023-10-08T00:23:32;5.55;;;3.60;;
12437;SDS011;6283;51.330;12.374;2023-10-08T00:26:00;5.60;;;3.78;;
12437;SDS011;6283;51.330;12.374;2023-10-08T00:28:31;8.63;;;3.67;;
12437;SDS011;6283;51.330;12.374;2023-10-08T00:31:06;8.95;;;3.90;;
12437;SDS011;6283;51.330;12.374;2023-10-08T00:33:36;7.60;;;4.18;;
12437;SDS011;6283;51.330;12.374;2023-10-08T00:36:02;7.28;;;3.58;;
12437;SDS011;6283;51.330;12.374;2023-10-08T00:38:45;7.15;;;3.38;;
12437;SDS011;6283;51.330;12.374;2023-10-08T00:41:17;6.53;;;4.18;;
12437;SDS011;6283;51.330;12.374;2023-10-08T00:43:53;6.82;;;3.50;;
12437;SDS011;6283;51.330;12.374;2023-10-08T00:46:21;7.30;;;3.90;;
12437;SDS011;6283;51.330;12.374;2023-10-08T00:48:55;6.97;;;4.00;;
12437;SDS011;6283;51.330;12.374;2023-10-08T00:51:23;9.68;;;3.88;;
12437;SDS011;6283;51.330;12.374;2023-10-08T00:53:57;5.45;;;3.90;;
12437;SDS011;6283;51.330;12.374;2023-10-08T00:56:33;8.05;;;4.10;;
12437;SDS011;6283;51.330;12.374;2023-10-08T00:59:15;6.43;;;3.90;;
12437;SDS011;6283;51.330;12.374;2023-10-08T01:01:42;10.25;;;4.22;;
12437;SDS011;6283;51.330;12.374;2023-10-08T01:04:15;5.45;;;3.47;;
12437;SDS011;6283;51.330;12.374;2023-10-08T01:06:49;8.45;;;4.60;;
12437;SDS011;6283;51.330;12.374;2023-10-08T01:09:20;8.15;;;3.83;;
12437;SDS011;6283;51.330;12.374;2023-10-08T01:14:54;6.53;;;4.03;;
12437;SDS011;6283;51.330;12.374;2023-10-08T01:17:23;7.10;;;3.97;;
12437;SDS011;6283;51.330;12.374;2023-10-08T01:19:51;6.95;;;4.38;;
12437;SDS011;6283;51.330;12.374;2023-10-08T01:22:21;6.93;;;4.40;;
12437;SDS011;6283;51.330;12.374;2023-10-08T01:24:48;8.63;;;4.10;;
12437;SDS011;6283;51.330;12.374;2023-10-08T01:27:17;10.48;;;5.45;;
12437;SDS011;6283;51.330;12.374;2023-10-08T01:29:52;6.00;;;4.57;;
12437;SDS011;6283;51.330;12.374;2023-10-08T01:32:18;6.93;;;4.15;;
12437;SDS011;6283;51.330;12.374;2023-10-08T01:34:46;8.40;;;4.25;;
12437;SDS011;6283;51.330;12.374;2023-10-08T01:37:13;5.55;;;3.58;;
12437;SDS011;6283;51.330;12.374;2023-10-08T01:39:42;4.65;;;3.58;;
12437;SDS011;6283;51.330;12.374;2023-10-08T01:42:11;6.20;;;3.50;;
12437;SDS011;6283;51.330;12.374;2023-10-08T01:44:44;4.53;;;3.17;;
12437;SDS011;6283;51.330;12.374;2023-10-08T01:47:11;3.55;;;2.70;;
12437;SDS011;6283;51.330;12.374;2023-10-08T01:49:37;2.67;;;1.88;;
12437;SDS011;6283;51.330;12.374;2023-10-08T01:52:04;2.33;;;1.00;;
12437;SDS011;6283;51.330;12.374;2023-10-08T01:54:32;1.10;;;1.00;;
12437;SDS011;6283;51.330;12.374;2023-10-08T01:57:00;1.33;;;0.52;;
12437;SDS011;6283;51.330;12.374;2023-10-08T01:59:26;0.50;;;0.50;;
12437;SDS011;6283;51.330;12.374;2023-10-08T02:01:52;0.35;;;0.35;;
12437;SDS011;6283;51.330;12.374;2023-10-08T02:04:21;0.82;;;0.60;;
12437;SDS011;6283;51.330;12.374;2023-10-08T02:06:46;0.30;;;0.30;;
12437;SDS011;6283;51.330;12.374;2023-10-08T02:09:12;0.75;;;0.30;;
12437;SDS011;6283;51.330;12.374;2023-10-08T02:11:45;0.30;;;0.30;;
12437;SDS011;6283;51.330;12.374;2023-10-08T02:14:15;0.20;;;0.20;;
12437;SDS011;6283;51.330;12.374;2023-10-08T02:16:42;0.43;;;0.22;;
12437;SDS011;6283;51.330;12.374;2023-10-08T02:19:09;0.15;;;0.15;;
12437;SDS011;6283;51.330;12.374;2023-10-08T02:21:37;0.20;;;0.20;;
12437;SDS011;6283;51.330;12.374;2023-10-08T02:24:07;0.30;;;0.30;;
12437;SDS011;6283;51.330;12.374;2023-10-08T02:26:33;0.20;;;0.20;;
12437;SDS011;6283;51.330;12.374;2023-10-08T02:29:03;0.30;;;0.20;;
12437;SDS011;6283;51.330;12.374;2023-10-08T02:31:36;0.30;;;0.30;;
12437;SDS011;6283;51.330;12.374;2023-10-08T02:34:05;0.28;;;0.28;;
12437;SDS011;6283;51.330;12.374;2023-10-08T02:36:35;0.20;;;0.20;;
12437;SDS011;6283;51.330;12.374;2023-10-08T02:39:02;0.20;;;0.20;;
12437;SDS011;6283;51.330;12.374;2023-10-08T02:41:38;0.00;;;0.00;;
12437;SDS011;6283;51.330;12.374;2023-10-08T02:44:08;0.17;;;0.15;;
12437;SDS011;6283;51.330;12.374;2023-10-08T02:46:41;0.25;;;0.25;;
12437;SDS011;6283;51.330;12.374;2023-10-08T02:49:09;0.20;;;0.20;;
12437;SDS011;6283;51.330;12.374;2023-10-08T02:51:39;0.38;;;0.30;;
12437;SDS011;6283;51.330;12.374;2023-10-08T02:54:10;0.17;;;0.17;;
12437;SDS011;6283;51.330;12.374;2023-10-08T02:56:43;0.10;;;0.10;;
12437;SDS011;6283;51.330;12.374;2023-10-08T02:59:11;0.63;;;0.40;;
12437;SDS011;6283;51.330;12.374;2023-10-08T03:01:38;0.27;;;0.10;;
12437;SDS011;6283;51.330;12.374;2023-10-08T03:04:07;0.23;;;0.23;;
12437;SDS011;6283;51.330;12.374;2023-10-08T03:06:40;0.20;;;0.20;;
12437;SDS011;6283;51.330;12.374;2023-10-08T03:09:06;0.30;;;0.30;;
12437;SDS011;6283;51.330;12.374;2023-10-08T03:11:34;0.50;;;0.50;;
12437;SDS011;6283;51.330;12.374;2023-10-08T03:14:02;0.40;;;0.40;;
12437;SDS011;6283;51.330;12.374;2023-10-08T03:16:28;0.50;;;0.50;;
12437;SDS011;6283;51.330;12.374;2023-10-08T03:18:59;0.57;;;0.57;;
12437;SDS011;6283;51.330;12.374;2023-10-08T03:21:26;0.57;;;0.57;;
12437;SDS011;6283;51.330;12.374;2023-10-08T03:24:03;0.20;;;0.20;;
12437;SDS011;6283;51.330;12.374;2023-10-08T03:26:38;0.33;;;0.33;;
12437;SDS011;6283;51.330;12.374;2023-10-08T03:29:05;0.33;;;0.20;;
12437;SDS011;6283;51.330;12.374;2023-10-08T03:31:40;0.10;;;0.10;;
12437;SDS011;6283;51.330;12.374;2023-10-08T03:34:15;1.20;;;0.20;;
12437;SDS011;6283;51.330;12.374;2023-10-08T03:36:44;0.10;;;0.10;;
12437;SDS011;6283;51.330;12.374;2023-10-08T03:39:11;0.27;;;0.10;;
12437;SDS011;6283;51.330;12.374;2023-10-08T03:41:41;0.10;;;0.10;;
12437;SDS011;6283;51.330;12.374;2023-10-08T03:44:07;0.10;;;0.10;;
12437;SDS011;6283;51.330;12.374;2023-10-08T03:46:41;0.10;;;0.10;;
12437;SDS011;6283;51.330;12.374;2023-10-08T03:49:11;0.10;;;0.10;;
12437;SDS011;6283;51.330;12.374;2023-10-08T03:51:46;0.03;;;0.03;;
12437;SDS011;6283;51.330;12.374;2023-10-08T03:54:16;0.00;;;0.00;;
12437;SDS011;6283;51.330;12.374;2023-10-08T03:56:44;0.00;;;0.00;;
12437;SDS011;6283;51.330;12.374;2023-10-08T03:59:14;0.10;;;0.10;;
12437;SDS011;6283;51.330;12.374;2023-10-08T04:01:56;0.10;;;0.10;;
12437;SDS011;6283;51.330;12.374;2023-10-08T04:04:26;0.10;;;0.10;;
12437;SDS011;6283;51.330;12.374;2023-10-08T04:07:11;0.20;;;0.20;;
12437;SDS011;6283;51.330;12.374;2023-10-08T04:09:55;0.30;;;0.30;;
12437;SDS011;6283;51.330;12.374;2023-10-08T04:12:34;0.20;;;0.20;;
12437;SDS011;6283;51.330;12.374;2023-10-08T04:15:12;0.40;;;0.40;;
12437;SDS011;6283;51.330;12.374;2023-10-08T04:17:41;0.40;;;0.40;;
12437;SDS011;6283;51.330;12.374;2023-10-08T04:20:10;0.43;;;0.40;;
12437;SDS011;6283;51.330;12.374;2023-10-08T04:22:56;0.50;;;0.50;;
12437;SDS011;6283;51.330;12.374;2023-10-08T04:25:24;0.70;;;0.70;;
12437;SDS011;6283;51.330;12.374;2023-10-08T04:27:53;1.10;;;1.10;;
12437;SDS011;6283;51.330;12.374;2023-10-08T04:30:23;0.90;;;0.90;;
12437;SDS011;6283;51.330;12.374;2023-10-08T04:32:57;1.57;;;1.10;;
12437;SDS011;6283;51.330;12.374;2023-10-08T04:35:23;1.50;;;1.10;;
12437;SDS011;6283;51.330;12.374;2023-10-08T04:37:51;1.07;;;1.00;;
12437;SDS011;6283;51.330;12.374;2023-10-08T04:40:18;1.80;;;1.20;;
12437;SDS011;6283;51.330;12.374;2023-10-08T04:42:47;1.10;;;1.10;;
12437;SDS011;6283;51.330;12.374;2023-10-08T04:45:13;1.40;;;1.07;;
12437;SDS011;6283;51.330;12.374;2023-10-08T04:47:42;1.53;;;1.30;;
12437;SDS011;6283;51.330;12.374;2023-10-08T04:50:10;1.53;;;1.27;;
12437;SDS011;6283;51.330;12.374;2023-10-08T04:52:42;1.23;;;1.03;;
12437;SDS011;6283;51.330;12.374;2023-10-08T04:55:21;1.33;;;0.97;;
12437;SDS011;6283;51.330;12.374;2023-10-08T04:57:53;1.00;;;0.93;;
12437;SDS011;6283;51.330;12.374;2023-10-08T05:00:20;2.97;;;0.70;;
12437;SDS011;6283;51.330;12.374;2023-10-08T05:03:06;1.07;;;0.73;;
12437;SDS011;6283;51.330;12.374;2023-10-08T05:05:41;2.17;;;0.87;;
12437;SDS011;6283;51.330;12.374;2023-10-08T05:08:22;0.93;;;0.50;;
12437;SDS011;6283;51.330;12.374;2023-10-08T05:10:57;0.70;;;0.70;;
12437;SDS011;6283;51.330;12.374;2023-10-08T05:13:39;1.90;;;0.73;;
12437;SDS011;6283;51.330;12.374;2023-10-08T05:16:20;2.30;;;0.70;;
12437;SDS011;6283;51.330;12.374;2023-10-08T05:19:02;1.30;;;0.53;;
12437;SDS011;6283;51.330;12.374;2023-10-08T05:21:51;0.93;;;0.63;;
12437;SDS011;6283;51.330;12.374;2023-10-08T05:24:26;1.07;;;0.80;;
12437;SDS011;6283;51.330;12.374;2023-10-08T05:27:03;0.70;;;0.70;;
12437;SDS011;6283;51.330;12.374;2023-10-08T05:29:48;1.63;;;0.93;;
12437;SDS011;6283;51.330;12.374;2023-10-08T05:32:32;1.10;;;0.80;;
12437;SDS011;6283;51.330;12.374;2023-10-08T05:35:11;1.57;;;0.70;;
12437;SDS011;6283;51.330;12.374;2023-10-08T05:38:06;3.27;;;1.10;;
12437;SDS011;6283;51.330;12.374;2023-10-08T05:40:42;1.40;;;1.00;;
12437;SDS011;6283;51.330;12.374;2023-10-08T05:43:38;0.90;;;0.77;;
12437;SDS011;6283;51.330;12.374;2023-10-08T05:46:04;1.87;;;0.73;;
12437;SDS011;6283;51.330;12.374;2023-10-08T05:48:52;3.40;;;0.90;;
12437;SDS011;6283;51.330;12.374;2023-10-08T05:51:31;1.63;;;0.80;;
12437;SDS011;6283;51.330;12.374;2023-10-08T05:57:00;1.33;;;1.00;;
12437;SDS011;6283;51.330;12.374;2023-10-08T06:02:24;3.17;;;1.40;;
12437;SDS011;6283;51.330;12.374;2023-10-08T06:05:11;2.10;;;1.00;;
12437;SDS011;6283;51.330;12.374;2023-10-08T06:10:28;4.23;;;1.00;;
12437;SDS011;6283;51.330;12.374;2023-10-08T06:13:02;1.53;;;1.17;;
12437;SDS011;6283;51.330;12.374;2023-10-08T06:18:13;1.23;;;0.80;;
12437;SDS011;6283;51.330;12.374;2023-10-08T06:20:51;1.43;;;0.80;;
12437;SDS011;6283;51.330;12.374;2023-10-08T06:23:21;1.00;;;0.70;;
12437;SDS011;6283;51.330;12.374;2023-10-08T06:25:51;1.97;;;0.70;;
12437;SDS011;6283;51.330;12.374;2023-10-08T06:28:30;3.07;;;1.00;;
12437;SDS011;6283;51.330;12.374;2023-10-08T06:31:00;1.23;;;0.83;;
12437;SDS011;6283;51.330;12.374;2023-10-08T06:33:26;1.73;;;1.00;;
12437;SDS011;6283;51.330;12.374;2023-10-08T06:36:01;2.03;;;0.87;;
12437;SDS011;6283;51.330;12.374;2023-10-08T06:38:31;2.47;;;0.90;;
12437;SDS011;6283;51.330;12.374;2023-10-08T06:41:01;2.00;;;1.20;;
12437;SDS011;6283;51.330;12.374;2023-10-08T06:43:49;2.80;;;1.20;;
12437;SDS011;6283;51.330;12.374;2023-10-08T06:46:18;0.97;;;0.90;;
12437;SDS011;6283;51.330;12.374;2023-10-08T06:48:44;3.50;;;1.20;;
12437;SDS011;6283;51.330;12.374;2023-10-08T06:51:11;4.03;;;1.13;;
12437;SDS011;6283;51.330;12.374;2023-10-08T06:53:43;2.63;;;1.57;;
12437;SDS011;6283;51.330;12.374;2023-10-08T06:56:12;1.83;;;1.63;;
12437;SDS011;6283;51.330;12.374;2023-10-08T06:58:39;2.93;;;1.97;;
12437;SDS011;6283;51.330;12.374;2023-10-08T07:01:10;5.30;;;2.03;;
12437;SDS011;6283;51.330;12.374;2023-10-08T07:03:38;2.40;;;2.00;;
12437;SDS011;6283;51.330;12.374;2023-10-08T07:06:03;2.10;;;1.80;;
12437;SDS011;6283;51.330;12.374;2023-10-08T07:08:41;3.00;;;1.80;;
12437;SDS011;6283;51.330;12.374;2023-10-08T07:11:08;3.03;;;1.70;;
12437;SDS011;6283;51.330;12.374;2023-10-08T07:13:36;3.70;;;1.70;;
12437;SDS011;6283;51.330;12.374;2023-10-08T07:16:04;3.07;;;1.43;;
12437;SDS011;6283;51.330;12.374;2023-10-08T07:18:31;3.20;;;1.57;;
12437;SDS011;6283;51.330;12.374;2023-10-08T07:20:59;3.17;;;1.33;;
12437;SDS011;6283;51.330;12.374;2023-10-08T07:23:36;5.33;;;1.23;;
12437;SDS011;6283;51.330;12.374;2023-10-08T07:26:18;1.83;;;1.20;;
12437;SDS011;6283;51.330;12.374;2023-10-08T07:28:49;5.43;;;1.30;;
12437;SDS011;6283;51.330;12.374;2023-10-08T07:31:19;4.10;;;1.40;;
12437;SDS011;6283;51.330;12.374;2023-10-08T07:36:27;2.73;;;1.50;;
12437;SDS011;6283;51.330;12.374;2023-10-08T07:38:56;3.90;;;1.10;;
12437;SDS011;6283;51.330;12.374;2023-10-08T07:41:22;4.07;;;1.50;;
12437;SDS011;6283;51.330;12.374;2023-10-08T07:43:48;3.07;;;1.50;;
12437;SDS011;6283;51.330;12.374;2023-10-08T07:46:24;3.50;;;1.37;;
12437;SDS011;6283;51.330;12.374;2023-10-08T07:48:55;3.30;;;1.40;;
12437;SDS011;6283;51.330;12.374;2023-10-08T07:51:23;1.93;;;1.10;;
12437;SDS011;6283;51.330;12.374;2023-10-08T07:53:49;4.67;;;1.50;;
12437;SDS011;6283;51.330;12.374;2023-10-08T07:56:24;2.30;;;1.30;;
12437;SDS011;6283;51.330;12.374;2023-10-08T07:58:53;2.53;;;1.00;;
12437;SDS011;6283;51.330;12.374;2023-10-08T08:01:22;2.97;;;1.20;;
12437;SDS011;6283;51.330;12.374;2023-10-08T08:03:50;3.53;;;1.20;;
12437;SDS011;6283;51.330;12.374;2023-10-08T08:06:16;4.47;;;1.43;;
12437;SDS011;6283;51.330;12.374;2023-10-08T08:08:42;1.70;;;1.17;;
12437;SDS011;6283;51.330;12.374;2023-10-08T08:11:09;4.37;;;1.20;;
12437;SDS011;6283;51.330;12.374;2023-10-08T08:13:38;3.07;;;1.30;;
12437;SDS011;6283;51.330;12.374;2023-10-08T08:16:07;3.13;;;1.33;;
12437;SDS011;6283;51.330;12.374;2023-10-08T08:18:47;6.23;;;1.60;;
12437;SDS011;6283;51.330;12.374;2023-10-08T08:21:22;4.17;;;1.50;;
12437;SDS011;6283;51.330;12.374;2023-10-08T08:23:48;4.73;;;1.47;;
12437;SDS011;6283;51.330;12.374;2023-10-08T08:26:22;5.30;;;1.77;;
12437;SDS011;6283;51.330;12.374;2023-10-08T08:28:55;2.07;;;1.60;;
12437;SDS011;6283;51.330;12.374;2023-10-08T08:31:22;5.77;;;1.70;;
12437;SDS011;6283;51.330;12.374;2023-10-08T08:33:50;5.07;;;1.93;;
12437;SDS011;6283;51.330;12.374;2023-10-08T08:36:22;6.00;;;2.00;;
12437;SDS011;6283;51.330;12.374;2023-10-08T08:38:49;2.03;;;1.30;;
12437;SDS011;6283;51.330;12.374;2023-10-08T08:41:15;5.53;;;1.70;;
12437;SDS011;6283;51.330;12.374;2023-10-08T08:43:47;4.90;;;1.67;;
12437;SDS011;6283;51.330;12.374;2023-10-08T08:46:14;5.83;;;1.77;;
12437;SDS011;6283;51.330;12.374;2023-10-08T08:48:41;5.83;;;1.80;;
12437;SDS011;6283;51.330;12.374;2023-10-08T08:51:11;5.37;;;1.67;;
12437;SDS011;6283;51.330;12.374;2023-10-08T08:53:37;3.60;;;1.73;;
12437;SDS011;6283;51.330;12.374;2023-10-08T08:56:03;1.90;;;1.50;;
12437;SDS011;6283;51.330;12.374;2023-10-08T08:58:38;3.50;;;1.63;;
12437;SDS011;6283;51.330;12.374;2023-10-08T09:01:07;6.87;;;1.77;;
12437;SDS011;6283;51.330;12.374;2023-10-08T09:03:37;3.73;;;1.90;;
12437;SDS011;6283;51.330;12.374;2023-10-08T09:06:04;4.43;;;1.60;;
12437;SDS011;6283;51.330;12.374;2023-10-08T09:08:37;3.70;;;1.97;;
12437;SDS011;6283;51.330;12.374;2023-10-08T09:11:13;3.30;;;2.00;;
12437;SDS011;6283;51.330;12.374;2023-10-08T09:13:40;4.43;;;1.90;;
12437;SDS011;6283;51.330;12.374;2023-10-08T09:16:12;3.97;;;1.77;;
12437;SDS011;6283;51.330;12.374;2023-10-08T09:18:41;6.97;;;2.33;;
12437;SDS011;6283;51.330;12.374;2023-10-08T09:21:11;3.53;;;2.10;;
12437;SDS011;6283;51.330;12.374;2023-10-08T09:23:39;3.80;;;1.83;;
12437;SDS011;6283;51.330;12.374;2023-10-08T09:26:12;5.80;;;2.03;;
12437;SDS011;6283;51.330;12.374;2023-10-08T09:28:40;2.43;;;2.00;;
12437;SDS011;6283;51.330;12.374;2023-10-08T09:31:11;6.63;;;2.53;;
12437;SDS011;6283;51.330;12.374;2023-10-08T09:33:38;4.90;;;1.73;;
12437;SDS011;6283;51.330;12.374;2023-10-08T09:36:04;4.23;;;2.17;;
12437;SDS011;6283;51.330;12.374;2023-10-08T09:38:35;5.23;;;1.90;;
12437;SDS011;6283;51.330;12.374;2023-10-08T09:41:02;4.03;;;2.13;;
12437;SDS011;6283;51.330;12.374;2023-10-08T09:43:28;6.27;;;2.40;;
12437;SDS011;6283;51.330;12.374;2023-10-08T09:46:18;3.77;;;2.10;;
12437;SDS011;6283;51.330;12.374;2023-10-08T09:48:47;6.60;;;3.03;;
12437;SDS011;6283;51.330;12.374;2023-10-08T09:51:16;5.83;;;2.70;;
12437;SDS011;6283;51.330;12.374;2023-10-08T09:53:52;5.30;;;2.80;;
12437;SDS011;6283;51.330;12.374;2023-10-08T09:56:21;5.93;;;3.37;;
12437;SDS011;6283;51.330;12.374;2023-10-08T09:58:48;5.47;;;3.03;;
12437;SDS011;6283;51.330;12.374;2023-10-08T10:01:15;7.20;;;2.70;;
12437;SDS011;6283;51.330;12.374;2023-10-08T10:03:43;7.33;;;3.13;;
12437;SDS011;6283;51.330;12.374;2023-10-08T10:06:13;5.37;;;2.70;;
12437;SDS011;6283;51.330;12.374;2023-10-08T10:08:42;4.03;;;3.37;;
12437;SDS011;6283;51.330;12.374;2023-10-08T10:11:09;6.53;;;2.93;;
12437;SDS011;6283;51.330;12.374;2023-10-08T10:13:39;4.60;;;2.97;;
12437;SDS011;6283;51.330;12.374;2023-10-08T10:16:07;5.00;;;2.63;;
12437;SDS011;6283;51.330;12.374;2023-10-08T10:18:33;5.13;;;2.80;;
12437;SDS011;6283;51.330;12.374;2023-10-08T10:20:59;7.87;;;2.83;;
12437;SDS011;6283;51.330;12.374;2023-10-08T10:23:45;3.23;;;2.43;;
12437;SDS011;6283;51.330;12.374;2023-10-08T10:34:30;6.93;;;2.93;;
12437;SDS011;6283;51.330;12.374;2023-10-08T10:36:59;4.53;;;2.43;;
12437;SDS011;6283;51.330;12.374;2023-10-08T10:39:35;4.73;;;2.40;;
12437;SDS011;6283;51.330;12.374;2023-10-08T10:42:05;6.72;;;2.90;;
12437;SDS011;6283;51.330;12.374;2023-10-08T10:44:36;4.85;;;2.97;;
12437;SDS011;6283;51.330;12.374;2023-10-08T10:47:02;6.30;;;3.03;;
12437;SDS011;6283;51.330;12.374;2023-10-08T10:49:41;8.93;;;2.85;;
12437;SDS011;6283;51.330;12.374;2023-10-08T10:52:21;5.57;;;2.67;;
12437;SDS011;6283;51.330;12.374;2023-10-08T10:55:01;3.88;;;3.03;;
12437;SDS011;6283;51.330;12.374;2023-10-08T10:57:40;4.20;;;3.00;;
12437;SDS011;6283;51.330;12.374;2023-10-08T11:00:08;4.60;;;2.47;;
12437;SDS011;6283;51.330;12.374;2023-10-08T11:03:04;4.70;;;3.33;;
12437;SDS011;6283;51.330;12.374;2023-10-08T11:05:57;5.43;;;3.10;;
12437;SDS011;6283;51.330;12.374;2023-10-08T11:08:25;6.15;;;2.80;;
12437;SDS011;6283;51.330;12.374;2023-10-08T11:10:51;3.60;;;2.83;;
12437;SDS011;6283;51.330;12.374;2023-10-08T11:13:20;6.00;;;3.22;;
12437;SDS011;6283;51.330;12.374;2023-10-08T11:15:47;7.05;;;2.58;;
12437;SDS011;6283;51.330;12.374;2023-10-08T11:18:23;3.38;;;2.97;;
12437;SDS011;6283;51.330;12.374;2023-10-08T11:20:51;3.47;;;2.90;;
12437;SDS011;6283;51.330;12.374;2023-10-08T11:23:33;5.43;;;2.70;;
12437;SDS011;6283;51.330;12.374;2023-10-08T11:26:03;3.38;;;2.80;;
12437;SDS011;6283;51.330;12.374;2023-10-08T11:31:11;5.57;;;2.92;;
12437;SDS011;6283;51.330;12.374;2023-10-08T11:33:42;3.78;;;2.78;;
12437;SDS011;6283;51.330;12.374;2023-10-08T11:36:21;4.30;;;2.88;;
12437;SDS011;6283;51.330;12.374;2023-10-08T11:39:11;7.30;;;3.35;;
12437;SDS011;6283;51.330;12.374;2023-10-08T11:41:54;6.60;;;2.55;;
12437;SDS011;6283;51.330;12.374;2023-10-08T11:44:50;3.63;;;2.30;;
12437;SDS011;6283;51.330;12.374;2023-10-08T11:47:17;4.53;;;2.42;;
12437;SDS011;6283;51.330;12.374;2023-10-08T11:49:47;4.18;;;2.10;;
12437;SDS011;6283;51.330;12.374;2023-10-08T11:52:19;4.45;;;2.15;;
12437;SDS011;6283;51.330;12.374;2023-10-08T11:54:48;4.78;;;2.38;;
12437;SDS011;6283;51.330;12.374;2023-10-08T11:57:17;5.28;;;3.25;;
12437;SDS011;6283;51.330;12.374;2023-10-08T11:59:46;5.57;;;2.42;;
12437;SDS011;6283;51.330;12.374;2023-10-08T12:02:12;4.00;;;2.50;;
12437;SDS011;6283;51.330;12.374;2023-10-08T12:04:41;5.40;;;2.53;;
12437;SDS011;6283;51.330;12.374;2023-10-08T12:07:10;5.85;;;2.55;;
12437;SDS011;6283;51.330;12.374;2023-10-08T12:09:35;6.72;;;2.78;;
12437;SDS011;6283;51.330;12.374;2023-10-08T12:12:05;5.70;;;2.72;;
12437;SDS011;6283;51.330;12.374;2023-10-08T12:14:35;3.97;;;2.30;;
12437;SDS011;6283;51.330;12.374;2023-10-08T12:17:02;3.33;;;2.63;;
12437;SDS011;6283;51.330;12.374;2023-10-08T12:19:36;5.22;;;2.40;;
12437;SDS011;6283;51.330;12.374;2023-10-08T12:22:02;4.95;;;2.65;;
12437;SDS011;6283;51.330;12.374;2023-10-08T12:24:28;7.00;;;3.08;;
12437;SDS011;6283;51.330;12.374;2023-10-08T12:26:53;6.93;;;2.38;;
12437;SDS011;6283;51.330;12.374;2023-10-08T12:29:20;5.63;;;2.50;;
12437;SDS011;6283;51.330;12.374;2023-10-08T12:31:49;5.90;;;2.85;;
12437;SDS011;6283;51.330;12.374;2023-10-08T12:34:18;4.30;;;2.30;;
12437;SDS011;6283;51.330;12.374;2023-10-08T12:36:44;6.45;;;2.22;;
12437;SDS011;6283;51.330;12.374;2023-10-08T12:39:11;3.58;;;2.33;;
12437;SDS011;6283;51.330;12.374;2023-10-08T12:41:41;3.80;;;2.25;;
12437;SDS011;6283;51.330;12.374;2023-10-08T12:44:08;3.40;;;2.10;;
12437;SDS011;6283;51.330;12.374;2023-10-08T12:46:34;4.90;;;2.70;;
12437;SDS011;6283;51.330;12.374;2023-10-08T12:49:01;4.40;;;2.15;;
12437;SDS011;6283;51.330;12.374;2023-10-08T12:51:27;4.38;;;2.35;;
12437;SDS011;6283;51.330;12.374;2023-10-08T12:53:57;3.50;;;1.80;;
12437;SDS011;6283;51.330;12.374;2023-10-08T12:56:33;4.15;;;2.17;;
12437;SDS011;6283;51.330;12.374;2023-10-08T12:59:13;5.18;;;2.38;;
12437;SDS011;6283;51.330;12.374;2023-10-08T13:01:45;5.05;;;1.90;;
12437;SDS011;6283;51.330;12.374;2023-10-08T13:04:16;5.78;;;2.20;;
12437;SDS011;6283;51.330;12.374;2023-10-08T13:06:50;6.05;;;3.17;;
12437;SDS011;6283;51.330;12.374;2023-10-08T13:09:16;4.28;;;2.30;;
12437;SDS011;6283;51.330;12.374;2023-10-08T13:11:42;3.90;;;2.40;;
12437;SDS011;6283;51.330;12.374;2023-10-08T13:14:08;4.15;;;1.83;;
12437;SDS011;6283;51.330;12.374;2023-10-08T13:16:33;3.22;;;2.15;;
12437;SDS011;6283;51.330;12.374;2023-10-08T13:19:02;3.70;;;2.45;;
12437;SDS011;6283;51.330;12.374;2023-10-08T13:21:28;4.63;;;2.17;;
12437;SDS011;6283;51.330;12.374;2023-10-08T13:23:57;3.78;;;2.28;;
12437;SDS011;6283;51.330;12.374;2023-10-08T13:26:25;5.20;;;2.40;;
12437;SDS011;6283;51.330;12.374;2023-10-08T13:28:57;5.22;;;2.63;;
12437;SDS011;6283;51.330;12.374;2023-10-08T13:31:23;6.65;;;2.33;;
12437;SDS011;6283;51.330;12.374;2023-10-08T13:33:50;3.80;;;1.98;;
12437;SDS011;6283;51.330;12.374;2023-10-08T13:36:17;5.07;;;2.40;;
12437;SDS011;6283;51.330;12.374;2023-10-08T13:38:43;4.47;;;2.55;;
12437;SDS011;6283;51.330;12.374;2023-10-08T13:41:11;3.15;;;2.10;;
12437;SDS011;6283;51.330;12.374;2023-10-08T13:43:47;4.85;;;2.35;;
12437;SDS011;6283;51.330;12.374;2023-10-08T13:46:16;4.68;;;2.20;;
12437;SDS011;6283;51.330;12.374;2023-10-08T13:48:43;8.52;;;2.25;;
12437;SDS011;6283;51.330;12.374;2023-10-08T13:51:14;4.45;;;3.05;;
12437;SDS011;6283;51.330;12.374;2023-10-08T13:53:48;5.05;;;2.20;;
12437;SDS011;6283;51.330;12.374;2023-10-08T13:56:17;4.78;;;2.22;;
12437;SDS011;6283;51.330;12.374;2023-10-08T13:58:45;4.53;;;2.50;;
12437;SDS011;6283;51.330;12.374;2023-10-08T14:01:14;6.40;;;2.67;;
12437;SDS011;6283;51.330;12.374;2023-10-08T14:03:49;5.20;;;2.88;;
12437;SDS011;6283;51.330;12.374;2023-10-08T14:06:18;4.05;;;2.42;;
12437;SDS011;6283;51.330;12.374;2023-10-08T14:08:45;3.90;;;2.33;;
12437;SDS011;6283;51.330;12.374;2023-10-08T14:11:17;4.25;;;2.38;;
12437;SDS011;6283;51.330;12.374;2023-10-08T14:13:51;5.63;;;2.28;;
12437;SDS011;6283;51.330;12.374;2023-10-08T14:16:18;4.00;;;2.92;;
12437;SDS011;6283;51.330;12.374;2023-10-08T14:18:48;9.38;;;2.50;;
12437;SDS011;6283;51.330;12.374;2023-10-08T14:21:21;8.25;;;2.78;;
12437;SDS011;6283;51.330;12.374;2023-10-08T14:23:50;5.63;;;2.47;;
12437;SDS011;6283;51.330;12.374;2023-10-08T14:26:21;5.50;;;2.60;;
12437;SDS011;6283;51.330;12.374;2023-10-08T14:28:47;4.25;;;2.65;;
12437;SDS011;6283;51.330;12.374;2023-10-08T14:31:20;2.92;;;2.30;;
12437;SDS011;6283;51.330;12.374;2023-10-08T14:33:49;3.58;;;2.65;;
12437;SDS011;6283;51.330;12.374;2023-10-08T14:36:30;6.20;;;2.92;;
12437;SDS011;6283;51.330;12.374;2023-10-08T14:39:15;3.17;;;2.38;;
12437;SDS011;6283;51.330;12.374;2023-10-08T14:42:00;4.70;;;2.30;;
12437;SDS011;6283;51.330;12.374;2023-10-08T14:44:44;3.40;;;2.10;;
12437;SDS011;6283;51.330;12.374;2023-10-08T14:47:11;2.60;;;1.98;;
12437;SDS011;6283;51.330;12.374;2023-10-08T14:49:38;3.25;;;2.08;;
12437;SDS011;6283;51.330;12.374;2023-10-08T14:52:03;3.53;;;2.55;;
12437;SDS011;6283;51.330;12.374;2023-10-08T14:54:30;5.70;;;2.47;;
12437;SDS011;6283;51.330;12.374;2023-10-08T14:56:56;5.32;;;2.97;;
12437;SDS011;6283;51.330;12.374;2023-10-08T14:59:22;3.40;;;2.30;;
12437;SDS011;6283;51.330;12.374;2023-10-08T15:01:48;4.72;;;2.60;;
12437;SDS011;6283;51.330;12.374;2023-10-08T15:04:15;4.88;;;2.60;;
12437;SDS011;6283;51.330;12.374;2023-10-08T15:06:41;3.13;;;1.95;;
12437;SDS011;6283;51.330;12.374;2023-10-08T15:09:08;3.20;;;2.00;;
12437;SDS011;6283;51.330;12.374;2023-10-08T15:11:34;4.28;;;2.28;;
12437;SDS011;6283;51.330;12.374;2023-10-08T15:14:04;4.93;;;2.17;;
12437;SDS011;6283;51.330;12.374;2023-10-08T15:16:37;3.85;;;2.08;;
12437;SDS011;6283;51.330;12.374;2023-10-08T15:19:06;5.68;;;3.63;;
12437;SDS011;6283;51.330;12.374;2023-10-08T15:21:36;3.97;;;2.75;;
12437;SDS011;6283;51.330;12.374;2023-10-08T15:24:04;5.43;;;2.35;;
12437;SDS011;6283;51.330;12.374;2023-10-08T15:26:35;2.28;;;2.08;;
12437;SDS011;6283;51.330;12.374;2023-10-08T15:29:01;3.30;;;2.15;;
12437;SDS011;6283;51.330;12.374;2023-10-08T15:31:28;3.92;;;2.20;;
12437;SDS011;6283;51.330;12.374;2023-10-08T15:33:53;2.60;;;2.40;;
12437;SDS011;6283;51.330;12.374;2023-10-08T15:36:19;6.57;;;2.45;;
12437;SDS011;6283;51.330;12.374;2023-10-08T15:38:45;3.22;;;2.67;;